createdAt,value
2018-04-25T00:46:32.409Z,95018.34
2018-04-25T00:49:05.669Z,95017.52
2018-04-25T00:51:38.936Z,95020.78
2018-04-25T00:54:12.956Z,95023.28
2018-04-25T00:56:46.997Z,95019.93
2018-04-25T00:59:20.252Z,95019.87
2018-04-25T02:32:53.425Z,95029.81
2018-04-25T02:35:27.451Z,95031.46
2018-04-25T02:38:00.736Z,95034.58
2018-04-25T02:40:34.759Z,95034.98
2018-04-25T02:43:08.058Z,95044.36
2018-04-25T03:47:31.283Z,95029.23
2018-04-25T03:50:05.311Z,95026.69
2018-04-25T03:52:38.583Z,95024.16
2018-04-25T03:55:12.599Z,95029.92
2018-04-25T03:57:45.913Z,95042.31
2018-04-25T04:32:52.563Z,95059.35
2018-04-25T04:35:25.823Z,95053.27
2018-04-25T04:37:59.099Z,95051.30
2018-04-25T04:40:32.358Z,95057.73
2018-04-25T04:43:06.441Z,95057.80
2018-04-25T04:45:39.652Z,95065.89
2018-04-25T04:48:16.586Z,95066.67
2018-04-25T04:50:49.851Z,95066.42
2018-04-25T04:53:23.879Z,95057.20
2018-04-25T04:55:57.204Z,95058.16
2018-04-25T04:58:30.500Z,95063.58
2018-04-25T05:01:03.764Z,95062.45
2018-04-25T05:03:37.048Z,95063.92
2018-04-25T05:06:10.339Z,95062.14
2018-04-25T05:08:43.709Z,95057.19
2018-04-25T05:11:16.875Z,95053.65
2018-04-25T05:13:50.160Z,95061.11
2018-04-25T05:16:23.460Z,95063.08
2018-04-25T05:18:56.717Z,95065.94
2018-04-25T05:21:30.008Z,95066.41
2018-04-25T05:24:03.273Z,95068.05
2018-04-25T05:26:36.544Z,95069.55
2018-04-25T05:29:09.795Z,95076.43
2018-04-25T05:31:43.064Z,95071.89
2018-04-25T05:34:17.095Z,95078.31
2018-04-25T05:36:50.368Z,95078.83
2018-04-25T05:39:23.611Z,95084.66
2018-04-25T05:41:56.884Z,95078.83
2018-04-25T05:44:30.145Z,95085.37
2018-04-25T05:47:04.182Z,95082.42
2018-04-25T05:49:37.431Z,95084.37
2018-04-25T05:52:10.699Z,95083.58
2018-04-25T05:54:43.964Z,95089.24
2018-04-25T05:57:17.233Z,95081.75
2018-04-25T05:59:51.267Z,95083.13
2018-04-25T06:02:24.533Z,95085.71
2018-04-25T06:04:57.805Z,95086.05
2018-04-25T06:07:31.064Z,95090.06
2018-04-25T06:10:04.329Z,95087.08
2018-04-25T06:12:38.438Z,95087.53
2018-04-25T06:15:11.644Z,95079.70
2018-04-25T06:17:45.661Z,95093.16
2018-04-25T06:20:19.569Z,95076.41
2018-04-25T06:22:53.581Z,95078.77
2018-04-25T06:25:26.853Z,95075.67
2018-04-25T06:28:00.867Z,95091.74
2018-04-25T07:03:07.154Z,95073.59
2018-04-25T07:05:40.421Z,95072.16
2018-04-25T07:08:14.478Z,95072.83
2018-04-25T07:10:47.720Z,95074.94
2018-04-25T07:13:21.060Z,95080.81
2018-04-25T08:01:28.239Z,95024.80
2018-04-25T08:04:01.548Z,95027.92
2018-04-25T08:06:34.820Z,95019.83
2018-04-25T08:09:08.073Z,95011.23
2018-04-25T08:11:42.115Z,95024.76
2018-04-25T08:14:33.396Z,95013.83
2018-04-25T09:02:40.035Z,94985.17
2018-04-25T09:05:13.314Z,94980.60
2018-04-25T09:07:46.559Z,94977.58
2018-04-25T09:10:20.601Z,94998.50
2018-04-25T09:12:53.864Z,94974.65
2018-04-25T10:00:59.845Z,94931.26
2018-04-25T10:03:33.099Z,94952.28
2018-04-25T10:06:06.375Z,94945.23
2018-04-25T10:08:40.401Z,94923.17
2018-04-25T10:11:13.683Z,94933.59
2018-04-25T10:13:47.720Z,94933.42
2018-04-25T11:01:53.087Z,94917.04
2018-04-25T11:04:26.368Z,94911.20
2018-04-25T11:07:00.393Z,94905.52
2018-04-25T11:09:33.639Z,94941.01
2018-04-25T11:12:06.915Z,94895.22
2018-04-25T11:14:40.181Z,94903.23
2018-04-25T12:02:47.027Z,94882.19
2018-04-25T12:05:21.051Z,94850.51
2018-04-25T12:07:54.312Z,94864.06
2018-04-25T12:10:27.599Z,94840.48
2018-04-25T12:13:00.847Z,94841.22
2018-04-25T13:01:07.643Z,94865.23
2018-04-25T13:03:40.935Z,94868.69
2018-04-25T13:06:14.190Z,94803.04
2018-04-25T13:08:47.464Z,94853.00
2018-04-25T13:11:20.715Z,94822.40
2018-04-25T13:13:53.987Z,94841.47
2018-04-25T14:02:01.441Z,94864.83
2018-04-25T14:04:34.707Z,94836.14
2018-04-25T14:07:07.980Z,94834.55
2018-04-25T14:09:41.229Z,94871.23
2018-04-25T14:12:14.512Z,94849.19
2018-04-25T14:14:47.769Z,94846.19
2018-04-25T14:46:38.663Z,94805.64
2018-04-25T14:49:12.692Z,94822.42
2018-04-25T14:51:46.732Z,94795.46
2018-04-25T14:54:19.985Z,94797.31
2018-04-25T14:56:53.261Z,94825.44
2018-04-25T14:59:26.520Z,94801.22
2018-04-25T15:31:16.921Z,94806.02
2018-04-25T15:33:50.226Z,94790.31
2018-04-25T15:36:23.484Z,94793.97
2018-04-25T15:38:57.540Z,94795.59
2018-04-25T15:41:30.789Z,94783.91
2018-04-25T15:44:04.852Z,94803.37
2018-04-25T15:46:38.122Z,94805.05
2018-04-25T15:49:11.390Z,94783.59
2018-04-25T15:51:44.657Z,94797.52
2018-04-25T15:54:17.924Z,94806.98
2018-04-25T15:56:51.197Z,94785.02
2018-04-25T15:59:24.471Z,94780.45
2018-04-25T16:01:58.502Z,94811.52
2018-04-25T16:04:31.768Z,94790.63
2018-04-25T16:07:05.796Z,94792.16
2018-04-25T16:09:39.079Z,94781.48
2018-04-25T16:12:13.190Z,94798.53
2018-04-25T16:14:47.140Z,94795.30
2018-04-25T16:17:20.393Z,94789.59
2018-04-25T16:19:54.431Z,94781.22
2018-04-25T16:22:27.700Z,94799.11
2018-04-25T16:25:01.760Z,94812.84
2018-04-25T16:27:35.009Z,94803.67
2018-04-25T16:30:08.286Z,94820.55
2018-04-25T16:32:41.540Z,94811.27
2018-04-25T16:35:14.812Z,94785.94
2018-04-25T16:37:48.069Z,94779.98
2018-04-25T16:40:22.115Z,94795.06
2018-04-25T16:42:55.377Z,94793.58
2018-04-25T16:45:28.644Z,94774.33
2018-04-25T16:48:01.919Z,94777.39
2018-04-25T16:50:35.260Z,94782.30
2018-04-25T16:53:08.461Z,94781.44
2018-04-25T16:55:42.511Z,94785.03
2018-04-25T16:58:15.767Z,94771.56
2018-04-25T17:00:49.823Z,94783.47
2018-04-25T17:03:23.092Z,94770.45
2018-04-25T17:05:56.375Z,94780.27
2018-04-25T17:08:30.414Z,94775.56
2018-04-25T17:11:03.704Z,94770.66
2018-04-25T17:13:36.966Z,94774.20
2018-04-25T17:16:11.002Z,94796.31
2018-04-25T17:18:44.255Z,94796.72
2018-04-25T17:21:17.532Z,94780.27
2018-04-25T17:23:50.787Z,94778.77
2018-04-25T17:26:24.073Z,94776.20
2018-04-25T17:28:57.340Z,94777.56
2018-04-25T17:31:30.613Z,94780.69
2018-04-25T17:34:03.881Z,94790.58
2018-04-25T17:36:37.152Z,94803.84
2018-04-25T17:39:10.407Z,94801.97
2018-04-25T17:41:43.680Z,94815.49
2018-04-25T17:44:16.933Z,94823.99
2018-04-25T17:46:50.208Z,94824.92
2018-04-25T17:49:24.223Z,94817.61
2018-04-25T17:51:57.508Z,94819.74
2018-04-25T17:54:31.531Z,94828.52
2018-04-25T17:57:05.567Z,94824.42
2018-04-25T17:59:38.821Z,94827.67
2018-04-25T18:02:12.896Z,94840.31
2018-04-25T18:04:46.148Z,94852.93
2018-04-25T18:07:19.453Z,94845.22
2018-04-25T18:09:52.710Z,94847.56
2018-04-25T18:12:26.008Z,94844.06
2018-04-25T18:15:00.057Z,94852.80
2018-04-25T18:17:33.339Z,94865.77
2018-04-25T18:20:06.599Z,94860.70
2018-04-25T18:22:39.901Z,94873.61
2018-04-25T18:25:13.147Z,94864.98
2018-04-25T18:27:46.612Z,94876.39
2018-04-25T18:30:19.894Z,94881.99
2018-04-25T18:32:54.087Z,94890.31
2018-04-25T18:35:28.300Z,94889.80
2018-04-25T18:38:01.954Z,94890.41
2018-04-25T18:40:35.200Z,94895.30
2018-04-25T18:43:08.473Z,94892.67
2018-04-25T18:45:41.736Z,94911.44
2018-04-25T18:48:15.005Z,94904.04
2018-04-25T18:50:49.026Z,94894.97
2018-04-25T18:53:22.302Z,94901.42
2018-04-25T18:55:56.331Z,94911.78
2018-04-25T18:58:30.364Z,94905.61
2018-04-25T19:01:03.624Z,94913.55
2018-04-25T19:03:37.673Z,94923.27
2018-04-25T19:06:10.987Z,94931.66
2018-04-25T19:08:44.296Z,94935.93
2018-04-25T19:11:17.654Z,94941.13
2018-04-25T19:13:50.936Z,94939.84
2018-04-25T19:16:24.207Z,94951.75
2018-04-25T19:18:58.243Z,94956.06
2018-04-25T19:21:31.491Z,94964.41
2018-04-25T19:24:05.033Z,94965.95
2018-04-25T19:26:38.291Z,94965.07
2018-04-25T19:29:11.584Z,94963.85
2018-04-25T19:31:44.840Z,94966.61
2018-04-25T19:34:18.137Z,94969.20
2018-04-25T19:36:51.407Z,94964.73
2018-04-25T19:39:24.699Z,94982.00
2018-04-25T19:41:57.973Z,94979.55
2018-04-25T19:44:31.251Z,94974.46
2018-04-25T19:47:04.509Z,94977.90
2018-04-25T19:49:38.057Z,94980.91
2018-04-25T19:52:11.269Z,94990.38
2018-04-25T19:54:45.337Z,94994.05
2018-04-25T19:57:18.615Z,94996.55
2018-04-25T19:59:51.877Z,94990.42
2018-04-25T20:02:25.139Z,94992.17
2018-04-25T20:04:58.478Z,94987.95
2018-04-25T20:07:31.732Z,94990.64
2018-04-25T20:10:05.777Z,94989.60
2018-04-25T20:12:39.072Z,94992.09
2018-04-25T20:15:12.426Z,94999.24
2018-04-25T20:17:45.705Z,94998.76
2018-04-25T20:20:18.964Z,94992.96
2018-04-25T20:22:52.248Z,94993.98
2018-04-25T20:25:25.524Z,95003.20
2018-04-25T20:27:59.553Z,95005.72
2018-04-25T20:30:32.837Z,94999.29
2018-04-25T20:33:06.852Z,95013.53
2018-04-25T20:35:40.124Z,95026.61
2018-04-25T20:38:15.069Z,95019.23
2018-04-25T20:40:49.107Z,95002.73
2018-04-25T20:43:22.372Z,95010.50
2018-04-25T20:45:56.419Z,95005.75
2018-04-25T20:48:29.683Z,94999.50
2018-04-25T20:51:02.955Z,94986.09
2018-04-25T20:53:36.207Z,94994.41
2018-04-25T20:56:09.483Z,94997.54
2018-04-25T20:58:42.742Z,95002.60
2018-04-25T21:01:16.056Z,95025.04
2018-04-25T21:03:50.083Z,95042.26
2018-04-25T21:06:23.884Z,95046.05
2018-04-25T21:08:57.138Z,95025.55
2018-04-25T21:11:30.404Z,95015.38
2018-04-25T21:14:03.664Z,95011.49
2018-04-25T21:16:36.943Z,95009.33
2018-04-25T21:19:10.259Z,95020.15
2018-04-25T21:21:43.528Z,95033.74
2018-04-25T21:24:17.569Z,95044.71
2018-04-25T21:26:50.831Z,95057.21
2018-04-25T21:29:24.884Z,95061.98
2018-04-25T21:31:58.148Z,95055.30
2018-04-25T21:34:31.651Z,95055.55
2018-04-25T21:37:04.899Z,95064.89
2018-04-25T21:39:38.348Z,95056.73
2018-04-25T21:42:11.598Z,95050.95
2018-04-25T21:44:45.241Z,95036.77
2018-04-25T21:47:18.499Z,95040.69
2018-04-25T21:49:51.776Z,95047.57
2018-04-25T21:52:25.045Z,95046.30
2018-04-25T21:54:58.309Z,95039.66
2018-04-25T21:57:31.560Z,95040.88
2018-04-25T22:00:04.867Z,95041.81
2018-04-25T22:02:38.128Z,95032.80
2018-04-25T22:05:11.399Z,95032.03
2018-04-25T22:07:44.680Z,95045.53
2018-04-25T22:10:18.467Z,95052.38
2018-04-25T22:12:51.710Z,95062.72
2018-04-25T22:15:24.996Z,95077.22
2018-04-25T22:17:58.278Z,95083.99
2018-04-25T22:20:31.551Z,95076.02
2018-04-25T22:23:04.805Z,95074.66
2018-04-25T22:25:38.083Z,95074.94
2018-04-25T22:28:11.336Z,95063.16
2018-04-25T22:30:44.620Z,95054.83
2018-04-25T22:33:17.884Z,95067.98
2018-04-25T22:35:51.155Z,95065.08
2018-04-25T22:38:24.430Z,95073.83
2018-04-25T22:40:57.699Z,95085.47
2018-04-25T22:43:31.731Z,95087.73
2018-04-25T22:46:05.002Z,95089.09
2018-04-25T22:48:39.028Z,95096.45
2018-04-25T22:51:12.531Z,95103.10
2018-04-25T22:53:45.790Z,95118.14
2018-04-25T22:56:19.083Z,95099.25
2018-04-25T22:58:52.342Z,95077.41
2018-04-25T23:01:25.676Z,95085.61
2018-04-25T23:03:58.922Z,95093.01
2018-04-25T23:06:32.187Z,95093.72
2018-04-25T23:09:06.219Z,95097.99
2018-04-25T23:11:39.477Z,95096.28
2018-04-25T23:14:12.731Z,95093.59
